sensor_id;sensor_type;location;lat;lon;timestamp;P1;durP1;ratioP1;P2;durP2;ratioP2
3311;SDS011;1668;49.648;8.570;2023-02-12T00:00:43;36.33;;;22.43;;
3311;SDS011;1668;49.648;8.570;2023-02-12T00:03:11;39.33;;;25.67;;
3311;SDS011;1668;49.648;8.570;2023-02-12T00:05:39;35.13;;;22.77;;
3311;SDS011;1668;49.648;8.570;2023-02-12T00:08:06;39.17;;;24.07;;
3311;SDS011;1668;49.648;8.570;2023-02-12T00:10:38;39.57;;;25.30;;
3311;SDS011;1668;49.648;8.570;2023-02-12T00:13:07;36.20;;;23.63;;
3311;SDS011;1668;49.648;8.570;2023-02-12T00:15:36;35.20;;;23.43;;
3311;SDS011;1668;49.648;8.570;2023-02-12T00:18:04;40.87;;;25.67;;
3311;SDS011;1668;49.648;8.570;2023-02-12T00:20:31;40.83;;;25.33;;
3311;SDS011;1668;49.648;8.570;2023-02-12T00:22:59;43.90;;;26.57;;
3311;SDS011;1668;49.648;8.570;2023-02-12T00:25:26;41.17;;;25.27;;
3311;SDS011;1668;49.648;8.570;2023-02-12T00:27:52;43.63;;;26.67;;
3311;SDS011;1668;49.648;8.570;2023-02-12T00:30:19;43.30;;;26.50;;
3311;SDS011;1668;49.648;8.570;2023-02-12T00:32:46;42.90;;;26.23;;
3311;SDS011;1668;49.648;8.570;2023-02-12T00:35:13;47.33;;;27.53;;
3311;SDS011;1668;49.648;8.570;2023-02-12T00:37:40;47.17;;;28.70;;
3311;SDS011;1668;49.648;8.570;2023-02-12T00:40:09;42.97;;;27.27;;
3311;SDS011;1668;49.648;8.570;2023-02-12T00:42:36;47.63;;;28.47;;
3311;SDS011;1668;49.648;8.570;2023-02-12T00:45:03;46.40;;;27.50;;
3311;SDS011;1668;49.648;8.570;2023-02-12T00:47:30;44.37;;;27.70;;
3311;SDS011;1668;49.648;8.570;2023-02-12T00:49:56;41.27;;;25.70;;
3311;SDS011;1668;49.648;8.570;2023-02-12T00:52:23;44.80;;;29.00;;
3311;SDS011;1668;49.648;8.570;2023-02-12T00:54:51;47.90;;;30.07;;
3311;SDS011;1668;49.648;8.570;2023-02-12T00:57:19;49.77;;;30.27;;
3311;SDS011;1668;49.648;8.570;2023-02-12T00:59:46;46.43;;;27.90;;
3311;SDS011;1668;49.648;8.570;2023-02-12T01:02:13;51.43;;;31.03;;
3311;SDS011;1668;49.648;8.570;2023-02-12T01:04:39;47.50;;;29.00;;
3311;SDS011;1668;49.648;8.570;2023-02-12T01:07:07;45.97;;;29.60;;
3311;SDS011;1668;49.648;8.570;2023-02-12T01:09:34;48.50;;;29.70;;
3311;SDS011;1668;49.648;8.570;2023-02-12T01:12:01;51.33;;;29.73;;
3311;SDS011;1668;49.648;8.570;2023-02-12T01:14:30;47.63;;;28.63;;
3311;SDS011;1668;49.648;8.570;2023-02-12T01:16:57;49.17;;;29.57;;
3311;SDS011;1668;49.648;8.570;2023-02-12T01:19:23;44.00;;;26.10;;
3311;SDS011;1668;49.648;8.570;2023-02-12T01:21:50;40.77;;;25.33;;
3311;SDS011;1668;49.648;8.570;2023-02-12T01:24:17;41.27;;;24.77;;
3311;SDS011;1668;49.648;8.570;2023-02-12T01:26:44;43.27;;;25.03;;
3311;SDS011;1668;49.648;8.570;2023-02-12T01:29:10;41.67;;;23.77;;
3311;SDS011;1668;49.648;8.570;2023-02-12T01:31:39;37.53;;;23.13;;
3311;SDS011;1668;49.648;8.570;2023-02-12T01:34:06;34.47;;;22.40;;
3311;SDS011;1668;49.648;8.570;2023-02-12T01:36:33;36.93;;;22.73;;
3311;SDS011;1668;49.648;8.570;2023-02-12T01:39:00;36.00;;;22.23;;
3311;SDS011;1668;49.648;8.570;2023-02-12T01:41:28;36.90;;;22.70;;
3311;SDS011;1668;49.648;8.570;2023-02-12T01:44:07;34.07;;;22.67;;
3311;SDS011;1668;49.648;8.570;2023-02-12T01:46:41;33.97;;;20.50;;
3311;SDS011;1668;49.648;8.570;2023-02-12T01:49:11;34.40;;;22.47;;
3311;SDS011;1668;49.648;8.570;2023-02-12T01:51:41;35.70;;;21.33;;
3311;SDS011;1668;49.648;8.570;2023-02-12T01:54:10;32.90;;;20.90;;
3311;SDS011;1668;49.648;8.570;2023-02-12T01:56:39;34.00;;;21.57;;
3311;SDS011;1668;49.648;8.570;2023-02-12T01:59:08;32.70;;;21.43;;
3311;SDS011;1668;49.648;8.570;2023-02-12T02:01:36;35.83;;;21.80;;
3311;SDS011;1668;49.648;8.570;2023-02-12T02:04:05;36.63;;;22.37;;
3311;SDS011;1668;49.648;8.570;2023-02-12T02:06:37;36.27;;;22.37;;
3311;SDS011;1668;49.648;8.570;2023-02-12T02:09:09;41.03;;;25.33;;
3311;SDS011;1668;49.648;8.570;2023-02-12T02:11:36;38.10;;;23.00;;
3311;SDS011;1668;49.648;8.570;2023-02-12T02:14:20;39.10;;;23.60;;
3311;SDS011;1668;49.648;8.570;2023-02-12T02:20:15;37.30;;;23.60;;
3311;SDS011;1668;49.648;8.570;2023-02-12T02:23:06;38.27;;;23.30;;
3311;SDS011;1668;49.648;8.570;2023-02-12T02:25:56;34.70;;;21.70;;
3311;SDS011;1668;49.648;8.570;2023-02-12T02:28:41;38.90;;;22.80;;
3311;SDS011;1668;49.648;8.570;2023-02-12T02:31:25;36.57;;;22.70;;
3311;SDS011;1668;49.648;8.570;2023-02-12T02:33:58;35.10;;;21.73;;
3311;SDS011;1668;49.648;8.570;2023-02-12T02:36:33;37.53;;;22.47;;
3311;SDS011;1668;49.648;8.570;2023-02-12T02:39:06;36.50;;;20.83;;
3311;SDS011;1668;49.648;8.570;2023-02-12T02:41:41;35.73;;;22.00;;
3311;SDS011;1668;49.648;8.570;2023-02-12T02:44:14;35.50;;;23.20;;
3311;SDS011;1668;49.648;8.570;2023-02-12T02:46:46;32.23;;;20.63;;
3311;SDS011;1668;49.648;8.570;2023-02-12T02:49:15;34.80;;;21.50;;
3311;SDS011;1668;49.648;8.570;2023-02-12T02:51:47;27.93;;;19.53;;
3311;SDS011;1668;49.648;8.570;2023-02-12T02:54:21;35.53;;;21.03;;
3311;SDS011;1668;49.648;8.570;2023-02-12T02:56:51;30.97;;;19.43;;
3311;SDS011;1668;49.648;8.570;2023-02-12T02:59:25;31.33;;;19.87;;
3311;SDS011;1668;49.648;8.570;2023-02-12T03:01:58;30.40;;;18.60;;
3311;SDS011;1668;49.648;8.570;2023-02-12T03:04:29;31.47;;;20.63;;
3311;SDS011;1668;49.648;8.570;2023-02-12T03:07:02;35.77;;;19.40;;
3311;SDS011;1668;49.648;8.570;2023-02-12T03:09:35;29.97;;;18.87;;
3311;SDS011;1668;49.648;8.570;2023-02-12T03:12:10;33.23;;;20.83;;
3311;SDS011;1668;49.648;8.570;2023-02-12T03:14:41;31.80;;;20.37;;
3311;SDS011;1668;49.648;8.570;2023-02-12T03:17:15;33.33;;;20.70;;
3311;SDS011;1668;49.648;8.570;2023-02-12T03:19:46;31.13;;;21.00;;
3311;SDS011;1668;49.648;8.570;2023-02-12T03:22:16;34.33;;;21.30;;
3311;SDS011;1668;49.648;8.570;2023-02-12T03:24:47;37.50;;;21.33;;
3311;SDS011;1668;49.648;8.570;2023-02-12T03:27:16;31.97;;;20.10;;
3311;SDS011;1668;49.648;8.570;2023-02-12T03:29:46;33.57;;;19.80;;
3311;SDS011;1668;49.648;8.570;2023-02-12T03:32:17;28.60;;;19.40;;
3311;SDS011;1668;49.648;8.570;2023-02-12T03:34:54;34.70;;;21.70;;
3311;SDS011;1668;49.648;8.570;2023-02-12T03:37:31;35.07;;;21.40;;
3311;SDS011;1668;49.648;8.570;2023-02-12T03:40:04;31.03;;;21.10;;
3311;SDS011;1668;49.648;8.570;2023-02-12T03:42:38;34.50;;;19.83;;
3311;SDS011;1668;49.648;8.570;2023-02-12T03:45:13;35.00;;;21.30;;
3311;SDS011;1668;49.648;8.570;2023-02-12T03:47:49;32.77;;;19.97;;
3311;SDS011;1668;49.648;8.570;2023-02-12T03:50:25;31.20;;;19.77;;
3311;SDS011;1668;49.648;8.570;2023-02-12T03:52:56;32.33;;;21.13;;
3311;SDS011;1668;49.648;8.570;2023-02-12T03:55:23;32.50;;;20.60;;
3311;SDS011;1668;49.648;8.570;2023-02-12T03:57:51;32.23;;;20.53;;
3311;SDS011;1668;49.648;8.570;2023-02-12T04:00:23;34.90;;;19.70;;
3311;SDS011;1668;49.648;8.570;2023-02-12T04:02:52;33.30;;;21.23;;
3311;SDS011;1668;49.648;8.570;2023-02-12T04:05:20;34.83;;;20.27;;
3311;SDS011;1668;49.648;8.570;2023-02-12T04:07:49;29.00;;;19.53;;
3311;SDS011;1668;49.648;8.570;2023-02-12T04:10:18;33.33;;;20.13;;
3311;SDS011;1668;49.648;8.570;2023-02-12T04:12:53;34.03;;;20.50;;
3311;SDS011;1668;49.648;8.570;2023-02-12T04:15:34;28.33;;;18.70;;
3311;SDS011;1668;49.648;8.570;2023-02-12T04:18:11;31.47;;;19.33;;
3311;SDS011;1668;49.648;8.570;2023-02-12T04:20:47;35.07;;;20.87;;
3311;SDS011;1668;49.648;8.570;2023-02-12T04:23:29;31.23;;;19.60;;
3311;SDS011;1668;49.648;8.570;2023-02-12T04:26:07;27.97;;;18.23;;
3311;SDS011;1668;49.648;8.570;2023-02-12T04:28:42;31.00;;;19.13;;
3311;SDS011;1668;49.648;8.570;2023-02-12T04:31:19;30.70;;;18.83;;
3311;SDS011;1668;49.648;8.570;2023-02-12T04:33:55;36.73;;;19.30;;
3311;SDS011;1668;49.648;8.570;2023-02-12T04:36:30;33.07;;;20.93;;
3311;SDS011;1668;49.648;8.570;2023-02-12T04:39:00;32.17;;;18.90;;
3311;SDS011;1668;49.648;8.570;2023-02-12T04:41:30;29.87;;;18.60;;
3311;SDS011;1668;49.648;8.570;2023-02-12T04:43:57;28.90;;;18.17;;
3311;SDS011;1668;49.648;8.570;2023-02-12T04:46:24;38.10;;;19.73;;
3311;SDS011;1668;49.648;8.570;2023-02-12T04:48:51;31.13;;;18.60;;
3311;SDS011;1668;49.648;8.570;2023-02-12T04:51:21;29.33;;;18.93;;
3311;SDS011;1668;49.648;8.570;2023-02-12T04:53:48;33.13;;;18.73;;
3311;SDS011;1668;49.648;8.570;2023-02-12T04:56:15;31.17;;;18.87;;
3311;SDS011;1668;49.648;8.570;2023-02-12T04:58:42;29.43;;;18.60;;
3311;SDS011;1668;49.648;8.570;2023-02-12T05:01:09;33.07;;;19.50;;
3311;SDS011;1668;49.648;8.570;2023-02-12T05:03:36;31.67;;;19.03;;
3311;SDS011;1668;49.648;8.570;2023-02-12T05:06:05;28.43;;;18.90;;
3311;SDS011;1668;49.648;8.570;2023-02-12T05:08:33;29.37;;;18.67;;
3311;SDS011;1668;49.648;8.570;2023-02-12T05:11:02;28.03;;;18.27;;
3311;SDS011;1668;49.648;8.570;2023-02-12T05:13:29;26.47;;;17.13;;
3311;SDS011;1668;49.648;8.570;2023-02-12T05:15:57;27.90;;;17.87;;
3311;SDS011;1668;49.648;8.570;2023-02-12T05:18:23;28.27;;;18.80;;
3311;SDS011;1668;49.648;8.570;2023-02-12T05:20:54;29.57;;;18.77;;
3311;SDS011;1668;49.648;8.570;2023-02-12T05:23:23;26.73;;;17.30;;
3311;SDS011;1668;49.648;8.570;2023-02-12T05:25:51;28.27;;;17.60;;
3311;SDS011;1668;49.648;8.570;2023-02-12T05:28:18;25.37;;;16.80;;
3311;SDS011;1668;49.648;8.570;2023-02-12T05:30:45;26.00;;;17.27;;
3311;SDS011;1668;49.648;8.570;2023-02-12T05:33:12;27.30;;;16.90;;
3311;SDS011;1668;49.648;8.570;2023-02-12T05:35:39;25.70;;;15.93;;
3311;SDS011;1668;49.648;8.570;2023-02-12T05:38:05;22.47;;;16.17;;
3311;SDS011;1668;49.648;8.570;2023-02-12T05:40:33;27.53;;;16.90;;
3311;SDS011;1668;49.648;8.570;2023-02-12T05:43:00;29.07;;;17.17;;
3311;SDS011;1668;49.648;8.570;2023-02-12T05:45:27;26.13;;;16.47;;
3311;SDS011;1668;49.648;8.570;2023-02-12T05:47:54;25.73;;;17.20;;
3311;SDS011;1668;49.648;8.570;2023-02-12T05:50:21;27.77;;;16.40;;
3311;SDS011;1668;49.648;8.570;2023-02-12T05:52:48;26.73;;;16.97;;
3311;SDS011;1668;49.648;8.570;2023-02-12T05:55:15;25.50;;;16.20;;
3311;SDS011;1668;49.648;8.570;2023-02-12T05:57:43;23.57;;;15.80;;
3311;SDS011;1668;49.648;8.570;2023-02-12T06:00:10;24.30;;;15.47;;
3311;SDS011;1668;49.648;8.570;2023-02-12T06:02:38;27.63;;;16.03;;
3311;SDS011;1668;49.648;8.570;2023-02-12T06:05:05;24.20;;;15.63;;
3311;SDS011;1668;49.648;8.570;2023-02-12T06:07:32;25.73;;;16.07;;
3311;SDS011;1668;49.648;8.570;2023-02-12T06:09:59;25.20;;;15.90;;
3311;SDS011;1668;49.648;8.570;2023-02-12T06:12:25;24.20;;;15.27;;
3311;SDS011;1668;49.648;8.570;2023-02-12T06:14:53;25.70;;;16.73;;
3311;SDS011;1668;49.648;8.570;2023-02-12T06:17:20;25.90;;;16.93;;
3311;SDS011;1668;49.648;8.570;2023-02-12T06:19:47;28.33;;;17.43;;
3311;SDS011;1668;49.648;8.570;2023-02-12T06:22:14;26.40;;;16.07;;
3311;SDS011;1668;49.648;8.570;2023-02-12T06:24:41;24.43;;;16.30;;
3311;SDS011;1668;49.648;8.570;2023-02-12T06:27:07;24.30;;;14.80;;
3311;SDS011;1668;49.648;8.570;2023-02-12T06:29:34;24.23;;;16.83;;
3311;SDS011;1668;49.648;8.570;2023-02-12T06:32:02;27.07;;;17.23;;
3311;SDS011;1668;49.648;8.570;2023-02-12T06:34:31;22.70;;;15.37;;
3311;SDS011;1668;49.648;8.570;2023-02-12T06:36:58;26.63;;;16.47;;
3311;SDS011;1668;49.648;8.570;2023-02-12T06:39:24;22.67;;;14.90;;
3311;SDS011;1668;49.648;8.570;2023-02-12T06:41:51;24.70;;;14.77;;
3311;SDS011;1668;49.648;8.570;2023-02-12T06:44:18;22.27;;;14.97;;
3311;SDS011;1668;49.648;8.570;2023-02-12T06:46:45;26.50;;;16.37;;
3311;SDS011;1668;49.648;8.570;2023-02-12T06:49:13;25.23;;;14.63;;
3311;SDS011;1668;49.648;8.570;2023-02-12T06:51:41;27.30;;;16.90;;
3311;SDS011;1668;49.648;8.570;2023-02-12T06:54:11;24.03;;;16.70;;
3311;SDS011;1668;49.648;8.570;2023-02-12T06:56:39;23.93;;;15.40;;
3311;SDS011;1668;49.648;8.570;2023-02-12T06:59:05;25.07;;;15.73;;
3311;SDS011;1668;49.648;8.570;2023-02-12T07:01:32;24.27;;;15.27;;
3311;SDS011;1668;49.648;8.570;2023-02-12T07:04:00;23.60;;;15.30;;
3311;SDS011;1668;49.648;8.570;2023-02-12T07:06:29;25.77;;;16.87;;
3311;SDS011;1668;49.648;8.570;2023-02-12T07:08:57;25.47;;;16.93;;
3311;SDS011;1668;49.648;8.570;2023-02-12T07:11:24;28.37;;;17.00;;
3311;SDS011;1668;49.648;8.570;2023-02-12T07:13:52;26.20;;;17.00;;
3311;SDS011;1668;49.648;8.570;2023-02-12T07:16:18;31.33;;;19.00;;
3311;SDS011;1668;49.648;8.570;2023-02-12T07:18:45;31.40;;;19.73;;
3311;SDS011;1668;49.648;8.570;2023-02-12T07:21:14;28.80;;;19.23;;
3311;SDS011;1668;49.648;8.570;2023-02-12T07:23:44;30.90;;;20.70;;
3311;SDS011;1668;49.648;8.570;2023-02-12T07:26:13;30.60;;;19.23;;
3311;SDS011;1668;49.648;8.570;2023-02-12T07:28:40;32.70;;;20.27;;
3311;SDS011;1668;49.648;8.570;2023-02-12T07:31:07;30.20;;;18.90;;
3311;SDS011;1668;49.648;8.570;2023-02-12T07:33:36;28.70;;;19.60;;
3311;SDS011;1668;49.648;8.570;2023-02-12T07:36:04;26.30;;;18.10;;
3311;SDS011;1668;49.648;8.570;2023-02-12T07:38:32;29.47;;;18.90;;
3311;SDS011;1668;49.648;8.570;2023-02-12T07:41:08;27.33;;;17.40;;
3311;SDS011;1668;49.648;8.570;2023-02-12T07:43:37;27.13;;;17.10;;
3311;SDS011;1668;49.648;8.570;2023-02-12T07:46:05;26.33;;;16.57;;
3311;SDS011;1668;49.648;8.570;2023-02-12T07:48:33;30.43;;;17.63;;
3311;SDS011;1668;49.648;8.570;2023-02-12T07:51:01;30.97;;;19.10;;
3311;SDS011;1668;49.648;8.570;2023-02-12T07:53:29;27.60;;;18.40;;
3311;SDS011;1668;49.648;8.570;2023-02-12T07:56:03;27.87;;;18.17;;
3311;SDS011;1668;49.648;8.570;2023-02-12T07:58:32;31.43;;;19.77;;
3311;SDS011;1668;49.648;8.570;2023-02-12T08:00:58;31.50;;;19.90;;
3311;SDS011;1668;49.648;8.570;2023-02-12T08:03:26;27.97;;;17.70;;
3311;SDS011;1668;49.648;8.570;2023-02-12T08:05:53;28.83;;;16.97;;
3311;SDS011;1668;49.648;8.570;2023-02-12T08:08:20;27.20;;;18.17;;
3311;SDS011;1668;49.648;8.570;2023-02-12T08:10:46;31.87;;;18.07;;
3311;SDS011;1668;49.648;8.570;2023-02-12T08:13:13;26.97;;;18.30;;
3311;SDS011;1668;49.648;8.570;2023-02-12T08:15:41;27.57;;;18.10;;
3311;SDS011;1668;49.648;8.570;2023-02-12T08:18:08;29.93;;;19.10;;
3311;SDS011;1668;49.648;8.570;2023-02-12T08:20:35;30.83;;;19.03;;
3311;SDS011;1668;49.648;8.570;2023-02-12T08:23:01;29.43;;;18.10;;
3311;SDS011;1668;49.648;8.570;2023-02-12T08:25:28;29.00;;;18.37;;
3311;SDS011;1668;49.648;8.570;2023-02-12T08:27:55;30.47;;;18.33;;
3311;SDS011;1668;49.648;8.570;2023-02-12T08:30:22;33.13;;;20.43;;
3311;SDS011;1668;49.648;8.570;2023-02-12T08:32:50;31.07;;;20.57;;
3311;SDS011;1668;49.648;8.570;2023-02-12T08:35:16;37.80;;;21.87;;
3311;SDS011;1668;49.648;8.570;2023-02-12T08:37:43;35.57;;;21.17;;
3311;SDS011;1668;49.648;8.570;2023-02-12T08:40:10;35.83;;;21.33;;
3311;SDS011;1668;49.648;8.570;2023-02-12T08:42:38;39.57;;;21.57;;
3311;SDS011;1668;49.648;8.570;2023-02-12T08:45:05;30.40;;;21.27;;
3311;SDS011;1668;49.648;8.570;2023-02-12T08:47:32;35.07;;;21.50;;
3311;SDS011;1668;49.648;8.570;2023-02-12T08:50:01;29.47;;;20.93;;
3311;SDS011;1668;49.648;8.570;2023-02-12T08:52:27;30.43;;;20.10;;
3311;SDS011;1668;49.648;8.570;2023-02-12T08:54:54;36.80;;;22.00;;
3311;SDS011;1668;49.648;8.570;2023-02-12T08:57:21;35.57;;;22.70;;
3311;SDS011;1668;49.648;8.570;2023-02-12T08:59:48;31.63;;;21.00;;
3311;SDS011;1668;49.648;8.570;2023-02-12T09:02:14;32.97;;;22.03;;
3311;SDS011;1668;49.648;8.570;2023-02-12T09:04:41;33.83;;;22.60;;
3311;SDS011;1668;49.648;8.570;2023-02-12T09:07:09;36.17;;;23.43;;
3311;SDS011;1668;49.648;8.570;2023-02-12T09:09:36;35.67;;;23.70;;
3311;SDS011;1668;49.648;8.570;2023-02-12T09:12:03;34.27;;;22.03;;
3311;SDS011;1668;49.648;8.570;2023-02-12T09:14:30;32.87;;;21.83;;
3311;SDS011;1668;49.648;8.570;2023-02-12T09:16:57;33.63;;;21.10;;
3311;SDS011;1668;49.648;8.570;2023-02-12T09:19:24;36.87;;;22.17;;
3311;SDS011;1668;49.648;8.570;2023-02-12T09:21:50;38.20;;;23.70;;
3311;SDS011;1668;49.648;8.570;2023-02-12T09:24:19;33.27;;;21.97;;
3311;SDS011;1668;49.648;8.570;2023-02-12T09:26:46;36.73;;;24.70;;
3311;SDS011;1668;49.648;8.570;2023-02-12T09:29:13;38.40;;;23.37;;
3311;SDS011;1668;49.648;8.570;2023-02-12T09:31:40;36.33;;;23.40;;
3311;SDS011;1668;49.648;8.570;2023-02-12T09:34:06;34.17;;;22.00;;
3311;SDS011;1668;49.648;8.570;2023-02-12T09:36:33;39.10;;;23.30;;
3311;SDS011;1668;49.648;8.570;2023-02-12T09:39:01;41.47;;;25.20;;
3311;SDS011;1668;49.648;8.570;2023-02-12T09:41:41;37.40;;;22.97;;
3311;SDS011;1668;49.648;8.570;2023-02-12T09:44:19;38.10;;;23.57;;
3311;SDS011;1668;49.648;8.570;2023-02-12T09:46:50;39.73;;;24.30;;
3311;SDS011;1668;49.648;8.570;2023-02-12T09:49:24;39.07;;;25.10;;
3311;SDS011;1668;49.648;8.570;2023-02-12T09:52:03;41.33;;;25.80;;
3311;SDS011;1668;49.648;8.570;2023-02-12T09:54:38;39.90;;;24.77;;
3311;SDS011;1668;49.648;8.570;2023-02-12T09:57:10;39.73;;;24.93;;
3311;SDS011;1668;49.648;8.570;2023-02-12T09:59:42;35.87;;;24.27;;
3311;SDS011;1668;49.648;8.570;2023-02-12T10:02:12;42.13;;;24.67;;
3311;SDS011;1668;49.648;8.570;2023-02-12T10:04:40;40.60;;;26.10;;
3311;SDS011;1668;49.648;8.570;2023-02-12T10:07:11;39.23;;;24.23;;
3311;SDS011;1668;49.648;8.570;2023-02-12T10:09:49;40.80;;;24.80;;
3311;SDS011;1668;49.648;8.570;2023-02-12T10:12:35;45.20;;;25.93;;
3311;SDS011;1668;49.648;8.570;2023-02-12T10:15:13;40.53;;;25.57;;
3311;SDS011;1668;49.648;8.570;2023-02-12T10:17:51;42.43;;;25.20;;
3311;SDS011;1668;49.648;8.570;2023-02-12T10:20:32;38.40;;;24.17;;
3311;SDS011;1668;49.648;8.570;2023-02-12T10:23:32;47.20;;;25.77;;
3311;SDS011;1668;49.648;8.570;2023-02-12T10:26:26;40.87;;;25.60;;
3311;SDS011;1668;49.648;8.570;2023-02-12T10:29:16;42.37;;;26.90;;
3311;SDS011;1668;49.648;8.570;2023-02-12T10:31:53;43.00;;;26.80;;
3311;SDS011;1668;49.648;8.570;2023-02-12T10:34:23;44.67;;;26.10;;
3311;SDS011;1668;49.648;8.570;2023-02-12T10:36:53;44.13;;;27.07;;
3311;SDS011;1668;49.648;8.570;2023-02-12T10:39:25;42.07;;;25.70;;
3311;SDS011;1668;49.648;8.570;2023-02-12T10:41:55;41.53;;;24.90;;
3311;SDS011;1668;49.648;8.570;2023-02-12T10:44:29;43.50;;;26.10;;
3311;SDS011;1668;49.648;8.570;2023-02-12T10:46:57;46.43;;;27.03;;
3311;SDS011;1668;49.648;8.570;2023-02-12T10:49:25;45.17;;;26.43;;
3311;SDS011;1668;49.648;8.570;2023-02-12T10:51:58;46.10;;;26.60;;
3311;SDS011;1668;49.648;8.570;2023-02-12T10:54:30;48.33;;;28.60;;
3311;SDS011;1668;49.648;8.570;2023-02-12T10:57:12;50.67;;;27.90;;
3311;SDS011;1668;49.648;8.570;2023-02-12T10:59:45;48.30;;;26.47;;
3311;SDS011;1668;49.648;8.570;2023-02-12T11:02:24;49.10;;;25.97;;
3311;SDS011;1668;49.648;8.570;2023-02-12T11:04:54;50.13;;;26.23;;
3311;SDS011;1668;49.648;8.570;2023-02-12T11:07:22;50.77;;;26.63;;
3311;SDS011;1668;49.648;8.570;2023-02-12T11:09:50;47.73;;;26.17;;
3311;SDS011;1668;49.648;8.570;2023-02-12T11:12:19;48.87;;;26.13;;
3311;SDS011;1668;49.648;8.570;2023-02-12T11:14:53;45.17;;;26.60;;
3311;SDS011;1668;49.648;8.570;2023-02-12T11:17:23;49.40;;;27.47;;
3311;SDS011;1668;49.648;8.570;2023-02-12T11:20:04;50.43;;;28.60;;
3311;SDS011;1668;49.648;8.570;2023-02-12T11:22:48;45.03;;;24.77;;
3311;SDS011;1668;49.648;8.570;2023-02-12T11:25:16;45.33;;;24.50;;
3311;SDS011;1668;49.648;8.570;2023-02-12T11:27:43;50.43;;;26.00;;
3311;SDS011;1668;49.648;8.570;2023-02-12T11:30:13;46.97;;;26.90;;
3311;SDS011;1668;49.648;8.570;2023-02-12T11:32:43;49.43;;;26.10;;
3311;SDS011;1668;49.648;8.570;2023-02-12T11:35:13;43.93;;;25.40;;
3311;SDS011;1668;49.648;8.570;2023-02-12T11:37:43;46.30;;;25.33;;
3311;SDS011;1668;49.648;8.570;2023-02-12T11:40:14;49.00;;;24.10;;
3311;SDS011;1668;49.648;8.570;2023-02-12T11:42:46;42.80;;;24.40;;
3311;SDS011;1668;49.648;8.570;2023-02-12T11:45:17;50.03;;;25.80;;
3311;SDS011;1668;49.648;8.570;2023-02-12T11:47:46;53.07;;;27.37;;
3311;SDS011;1668;49.648;8.570;2023-02-12T11:50:16;48.60;;;26.40;;
3311;SDS011;1668;49.648;8.570;2023-02-12T11:52:49;50.80;;;26.77;;
3311;SDS011;1668;49.648;8.570;2023-02-12T11:55:20;43.97;;;25.63;;
3311;SDS011;1668;49.648;8.570;2023-02-12T11:57:49;44.40;;;25.83;;
3311;SDS011;1668;49.648;8.570;2023-02-12T12:00:20;41.83;;;23.67;;
3311;SDS011;1668;49.648;8.570;2023-02-12T12:02:52;39.20;;;21.83;;
3311;SDS011;1668;49.648;8.570;2023-02-12T12:05:23;39.93;;;22.07;;
3311;SDS011;1668;49.648;8.570;2023-02-12T12:07:57;39.43;;;22.83;;
3311;SDS011;1668;49.648;8.570;2023-02-12T12:10:30;39.57;;;22.03;;
3311;SDS011;1668;49.648;8.570;2023-02-12T12:13:03;40.13;;;22.10;;
3311;SDS011;1668;49.648;8.570;2023-02-12T12:15:38;41.23;;;22.50;;
3311;SDS011;1668;49.648;8.570;2023-02-12T12:18:28;37.67;;;21.83;;
3311;SDS011;1668;49.648;8.570;2023-02-12T12:21:19;36.50;;;18.83;;
3311;SDS011;1668;49.648;8.570;2023-02-12T12:23:54;29.17;;;17.97;;
3311;SDS011;1668;49.648;8.570;2023-02-12T12:26:26;33.00;;;19.40;;
3311;SDS011;1668;49.648;8.570;2023-02-12T12:28:57;36.60;;;20.53;;
3311;SDS011;1668;49.648;8.570;2023-02-12T12:31:32;34.60;;;19.93;;
3311;SDS011;1668;49.648;8.570;2023-02-12T12:34:03;35.10;;;19.37;;
3311;SDS011;1668;49.648;8.570;2023-02-12T12:36:45;43.93;;;22.90;;
3311;SDS011;1668;49.648;8.570;2023-02-12T12:39:34;35.30;;;20.33;;
3311;SDS011;1668;49.648;8.570;2023-02-12T12:45:17;35.00;;;19.73;;
3311;SDS011;1668;49.648;8.570;2023-02-12T12:47:57;37.63;;;21.40;;
3311;SDS011;1668;49.648;8.570;2023-02-12T12:50:41;34.57;;;19.43;;
3311;SDS011;1668;49.648;8.570;2023-02-12T12:53:19;33.50;;;18.90;;
3311;SDS011;1668;49.648;8.570;2023-02-12T12:56:10;31.07;;;19.07;;
3311;SDS011;1668;49.648;8.570;2023-02-12T12:58:53;33.43;;;19.73;;
3311;SDS011;1668;49.648;8.570;2023-02-12T13:01:41;32.90;;;19.00;;
3311;SDS011;1668;49.648;8.570;2023-02-12T13:04:31;31.50;;;18.20;;
3311;SDS011;1668;49.648;8.570;2023-02-12T13:07:12;31.40;;;17.90;;
3311;SDS011;1668;49.648;8.570;2023-02-12T13:10:01;29.47;;;17.47;;
3311;SDS011;1668;49.648;8.570;2023-02-12T13:12:43;34.67;;;18.70;;
3311;SDS011;1668;49.648;8.570;2023-02-12T13:15:20;30.30;;;18.60;;
3311;SDS011;1668;49.648;8.570;2023-02-12T13:17:55;26.20;;;16.23;;
3311;SDS011;1668;49.648;8.570;2023-02-12T13:20:33;28.57;;;16.83;;
3311;SDS011;1668;49.648;8.570;2023-02-12T13:23:10;30.33;;;17.60;;
3311;SDS011;1668;49.648;8.570;2023-02-12T13:25:43;30.40;;;17.10;;
3311;SDS011;1668;49.648;8.570;2023-02-12T13:28:16;27.60;;;17.13;;
3311;SDS011;1668;49.648;8.570;2023-02-12T13:30:49;26.10;;;16.43;;
3311;SDS011;1668;49.648;8.570;2023-02-12T13:33:19;25.67;;;16.00;;
3311;SDS011;1668;49.648;8.570;2023-02-12T13:35:51;24.90;;;15.20;;
3311;SDS011;1668;49.648;8.570;2023-02-12T13:38:24;25.83;;;14.50;;
3311;SDS011;1668;49.648;8.570;2023-02-12T13:40:55;24.73;;;14.97;;
3311;SDS011;1668;49.648;8.570;2023-02-12T13:43:32;22.37;;;13.90;;
3311;SDS011;1668;49.648;8.570;2023-02-12T13:46:10;22.33;;;14.47;;
3311;SDS011;1668;49.648;8.570;2023-02-12T13:48:49;22.10;;;14.30;;
3311;SDS011;1668;49.648;8.570;2023-02-12T13:51:26;24.10;;;14.27;;
3311;SDS011;1668;49.648;8.570;2023-02-12T13:54:00;21.13;;;13.30;;
3311;SDS011;1668;49.648;8.570;2023-02-12T13:56:39;23.90;;;14.83;;
3311;SDS011;1668;49.648;8.570;2023-02-12T14:02:04;22.30;;;14.13;;
3311;SDS011;1668;49.648;8.570;2023-02-12T14:04:53;18.70;;;12.67;;
3311;SDS011;1668;49.648;8.570;2023-02-12T14:07:25;20.10;;;13.70;;
3311;SDS011;1668;49.648;8.570;2023-02-12T14:10:09;23.20;;;14.77;;
3311;SDS011;1668;49.648;8.570;2023-02-12T14:12:46;23.63;;;14.13;;
3311;SDS011;1668;49.648;8.570;2023-02-12T14:15:19;20.20;;;13.50;;
3311;SDS011;1668;49.648;8.570;2023-02-12T14:23:51;20.87;;;12.83;;
3311;SDS011;1668;49.648;8.570;2023-02-12T14:26:18;24.50;;;14.23;;
3311;SDS011;1668;49.648;8.570;2023-02-12T14:28:48;20.77;;;14.00;;
3311;SDS011;1668;49.648;8.570;2023-02-12T14:37:15;20.83;;;12.90;;
3311;SDS011;1668;49.648;8.570;2023-02-12T14:42:59;27.20;;;14.97;;
3311;SDS011;1668;49.648;8.570;2023-02-12T14:45:31;27.70;;;14.47;;
3311;SDS011;1668;49.648;8.570;2023-02-12T14:47:59;24.53;;;14.47;;
3311;SDS011;1668;49.648;8.570;2023-02-12T14:50:40;23.90;;;13.83;;
3311;SDS011;1668;49.648;8.570;2023-02-12T14:53:22;25.33;;;14.53;;
3311;SDS011;1668;49.648;8.570;2023-02-12T14:55:54;27.03;;;15.40;;
3311;SDS011;1668;49.648;8.570;2023-02-12T14:58:24;22.33;;;14.50;;
3311;SDS011;1668;49.648;8.570;2023-02-12T15:00:53;27.83;;;15.30;;
3311;SDS011;1668;49.648;8.570;2023-02-12T15:03:22;23.70;;;14.73;;
3311;SDS011;1668;49.648;8.570;2023-02-12T15:05:56;23.27;;;15.13;;
3311;SDS011;1668;49.648;8.570;2023-02-12T15:08:30;26.17;;;15.23;;
3311;SDS011;1668;49.648;8.570;2023-02-12T15:11:11;24.20;;;14.70;;
3311;SDS011;1668;49.648;8.570;2023-02-12T15:13:48;25.53;;;15.50;;
3311;SDS011;1668;49.648;8.570;2023-02-12T15:16:23;25.97;;;15.87;;
3311;SDS011;1668;49.648;8.570;2023-02-12T15:18:57;21.10;;;13.93;;
3311;SDS011;1668;49.648;8.570;2023-02-12T15:21:29;27.47;;;15.57;;
3311;SDS011;1668;49.648;8.570;2023-02-12T15:24:02;23.17;;;15.00;;
3311;SDS011;1668;49.648;8.570;2023-02-12T15:26:31;20.93;;;13.60;;
3311;SDS011;1668;49.648;8.570;2023-02-12T15:29:01;22.23;;;14.30;;
3311;SDS011;1668;49.648;8.570;2023-02-12T15:31:29;21.47;;;13.63;;
3311;SDS011;1668;49.648;8.570;2023-02-12T15:33:58;21.80;;;14.10;;
3311;SDS011;1668;49.648;8.570;2023-02-12T15:36:27;23.27;;;14.47;;